Latest Weather Observations for Lockhart River

IDQ60801

Issued at 2:32 am EST Monday 4 May 2015 (issued every 30 minutes, with the page automatically refreshed every 10 minutes)

About weather observations | Map of weather stations | Latest weather observations for QLD | Other Formats
Station Details ID: 028008 Name: LOCKHART RIVER AIRPORT Lat: -12.79 Lon: 143.30 Height: 18.5 m
Data from the previous 72 hours. | See also: Recent months at Lockhart River
Date/Time
EST
Temp
°C
App
Temp
°C
Dew
Point
Rel
Hum
%
Delta-T
°C
Wind Press
QNH
hPa
Press
MSL
hPa
Rain
since 9 am
mm
Dir
 
Spd
km/h
Gust
km/h
Spd
kts
Gust
kts
04/02:30am 19.6 23.0 19.3 98 0.2 CALM 0 0 0 0 1011.2 - 0.0
04/02:00am 19.8 23.3 19.5 98 0.2 CALM 0 0 0 0 1011.5 - 0.0
04/01:30am 19.9 23.4 19.6 98 0.2 CALM 0 0 0 0 1012.0 - 0.0
04/01:00am 20.1 23.7 19.8 98 0.2 CALM 0 0 0 0 1012.4 - 0.0
04/12:30am 20.1 23.6 19.6 97 0.3 CALM 0 0 0 0 1012.8 - 0.0
04/12:00am 20.4 24.1 19.9 97 0.3 CALM 0 0 0 0 1012.9 1012.8 0.0
 
Date/Time
EST
Temp
°C
App
Temp
°C
Dew
Point
Rel
Hum
%
Delta-T
°C
Wind Press
QNH
hPa
Press
MSL
hPa
Rain
since 9 am
mm
Dir
 
Spd
km/h
Gust
km/h
Spd
kts
Gust
kts
03/11:30pm 20.6 24.4 20.1 97 0.3 CALM 0 0 0 0 1013.0 - 0.0
03/11:03pm 20.7 24.5 20.2 97 0.3 CALM 0 0 0 0 1013.2 - 0.0
03/11:00pm 20.7 24.5 20.2 97 0.3 CALM 0 0 0 0 1013.2 - 0.0
03/10:35pm 20.9 24.8 20.4 97 0.3 CALM 0 0 0 0 1013.2 - 0.0
03/10:30pm 20.9 24.7 20.2 96 0.4 CALM 0 0 0 0 1013.2 - 0.0
03/10:00pm 21.3 25.4 20.8 97 0.3 CALM 0 0 0 0 1013.2 - 0.0
03/09:30pm 21.4 25.5 20.7 96 0.5 CALM 0 0 0 0 1013.1 - 0.0
03/09:00pm 21.9 26.2 21.1 95 0.5 CALM 0 0 0 0 1013.1 1013.0 0.0
03/08:30pm 22.1 26.5 21.3 95 0.5 CALM 0 0 0 0 1012.6 - 0.0
03/08:00pm 22.7 27.1 21.3 92 0.9 CALM 0 0 0 0 1012.0 - 0.0
03/07:30pm 23.6 28.2 21.7 89 1.3 CALM 0 0 0 0 1011.6 - 0.0
03/07:00pm 24.5 28.1 22.0 86 1.7 E 6 9 3 5 1011.1 - 0.0
03/06:30pm 25.2 29.1 22.5 85 1.8 E 6 7 3 4 1010.6 - 0.0
03/06:00pm 26.2 29.4 22.3 79 2.6 E 9 13 5 7 1010.3 1010.2 0.0
03/05:30pm 27.1 30.4 22.5 76 3.1 E 9 15 5 8 1010.0 - 0.0
03/05:00pm 27.6 29.9 22.1 72 3.7 E 13 19 7 10 1009.7 - 0.0
03/04:30pm 27.9 29.7 21.9 70 4.0 E 15 22 8 12 1009.7 - 0.0
03/04:00pm 28.5 30.8 22.7 71 3.9 E 15 22 8 12 1009.5 - 0.0
03/03:30pm 28.5 29.8 22.3 69 4.2 E 19 24 10 13 1009.6 - 0.0
03/03:00pm 28.9 30.6 22.4 68 4.4 E 17 22 9 12 1009.7 1009.6 0.0
03/02:30pm 29.2 31.2 22.9 69 4.3 E 17 22 9 12 1009.8 - 0.0
03/02:00pm 29.1 30.7 22.1 66 4.7 E 17 24 9 13 1010.2 - 0.0
03/01:30pm 29.2 31.1 22.7 68 4.4 E 17 22 9 12 1010.6 - 0.0
03/01:00pm 29.0 30.9 22.7 69 4.3 E 17 24 9 13 1011.1 - 0.0
03/12:30pm 29.3 32.3 23.3 70 4.1 E 13 20 7 11 1011.5 - 0.0
03/12:00pm 28.8 31.5 22.8 70 4.1 E 13 22 7 12 1012.1 1012.0 0.0
03/11:30am 28.8 32.0 23.0 71 4.0 E 11 19 6 10 1012.5 - 0.0
03/11:00am 28.8 31.7 23.2 71 3.8 E 13 22 7 12 1013.0 - 0.0
03/10:39am 28.6 32.0 23.3 73 3.6 ESE 11 19 6 10 1013.1 - 0.0
03/10:30am 28.4 31.5 23.5 75 3.4 E 13 19 7 10 1013.2 - 0.0
03/10:01am 27.4 31.5 23.2 78 2.9 E 7 13 4 7 1013.4 - 0.0
03/10:00am 27.4 31.6 23.4 79 2.7 E 7 13 4 7 1013.4 - 0.0
03/09:59am 27.6 31.9 23.6 79 2.7 E 7 13 4 7 1013.4 - 0.0
03/09:42am 27.4 32.1 24.3 83 2.1 SE 7 13 4 7 1013.5 - 0.0
03/09:30am 26.4 30.7 23.3 83 2.1 SSE 6 11 3 6 1013.6 - 0.0
03/09:00am 25.5 30.0 23.7 90 1.2 S 6 11 3 6 1013.5 1013.4 0.0
03/08:30am 23.8 29.4 23.6 99 0.1 CALM 0 0 0 0 1013.3 - 0.0
03/08:00am 21.9 26.5 21.7 99 0.1 CALM 0 0 0 0 1013.2 - 0.0
03/07:57am 21.5 25.9 21.3 99 0.1 CALM 0 0 0 0 1013.1 - 0.0
03/07:30am 20.1 23.8 19.9 99 0.1 CALM 0 0 0 0 1012.9 - 0.0
03/07:15am 19.5 22.9 19.3 99 0.1 CALM 0 0 0 0 1012.7 - 0.0
03/07:00am 19.4 22.7 19.1 98 0.2 CALM 0 0 0 0 1012.4 - 0.0
03/06:30am 19.1 22.3 18.8 98 0.2 CALM 0 0 0 0 1012.1 - 0.0
03/06:00am 19.5 22.8 19.2 98 0.2 CALM 0 0 0 0 1011.8 1011.7 0.0
03/05:30am 19.7 23.1 19.4 98 0.2 CALM 0 0 0 0 1011.6 - 0.0
03/05:00am 19.8 23.3 19.5 98 0.2 CALM 0 0 0 0 1011.6 - 0.0
03/04:30am 20.2 23.9 19.9 98 0.2 CALM 0 0 0 0 1011.5 - 0.0
03/04:00am 20.1 23.6 19.6 97 0.3 CALM 0 0 0 0 1011.5 - 0.0
03/03:30am 20.5 24.2 20.0 97 0.3 CALM 0 0 0 0 1011.4 - 0.0
03/03:00am 20.7 24.6 20.4 98 0.2 CALM 0 0 0 0 1011.7 1011.6 0.0
03/02:44am 21.0 25.1 20.7 98 0.2 CALM 0 0 0 0 1011.7 - 0.0
03/02:30am 21.0 25.1 20.7 98 0.2 CALM 0 0 0 0 1011.7 - 0.0
03/02:00am 20.9 24.9 20.6 98 0.2 CALM 0 4 0 2 1011.9 - 0.0
03/01:36am 20.6 24.4 20.1 97 0.3 CALM 0 6 0 3 1012.0 - 0.0
03/01:30am 20.6 24.4 20.1 97 0.3 CALM 0 0 0 0 1012.1 - 0.0
03/01:00am 21.0 25.0 20.5 97 0.3 CALM 0 0 0 0 1012.2 - 0.0
03/12:30am 21.2 25.3 20.7 97 0.3 CALM 0 0 0 0 1012.5 - 0.0
03/12:00am 21.3 25.4 20.8 97 0.3 CALM 0 0 0 0 1012.5 1012.4 0.0
 
Date/Time
EST
Temp
°C
App
Temp
°C
Dew
Point
Rel
Hum
%
Delta-T
°C
Wind Press
QNH
hPa
Press
MSL
hPa
Rain
since 9 am
mm
Dir
 
Spd
km/h
Gust
km/h
Spd
kts
Gust
kts
02/11:30pm 21.6 25.9 21.1 97 0.3 CALM 0 0 0 0 1012.6 - 0.0
02/11:27pm 21.6 25.9 21.1 97 0.3 CALM 0 0 0 0 1012.6 - 0.0
02/11:00pm 21.9 26.3 21.4 97 0.3 CALM 0 0 0 0 1012.8 - 0.0
02/10:41pm 21.9 26.3 21.4 97 0.3 CALM 0 0 0 0 1012.9 - 0.0
02/10:30pm 22.0 26.4 21.3 96 0.5 CALM 0 0 0 0 1012.8 - 0.0
02/10:28pm 21.9 26.2 21.2 96 0.5 CALM 0 0 0 0 1012.8 - 0.0
02/10:00pm 22.2 26.7 21.5 96 0.5 CALM 0 0 0 0 1012.9 - 0.0
02/09:50pm 22.2 26.7 21.5 96 0.5 CALM 0 0 0 0 1013.0 - 0.0
02/09:30pm 22.0 26.4 21.3 96 0.5 CALM 0 0 0 0 1012.8 - 0.0
02/09:00pm 22.4 26.9 21.6 95 0.5 CALM 0 0 0 0 1012.6 1012.5 0.0
02/08:30pm 22.8 27.4 21.8 94 0.7 CALM 0 0 0 0 1012.1 - 0.0
02/08:00pm 23.1 27.9 22.1 94 0.7 CALM 0 0 0 0 1011.5 - 0.0
02/07:30pm 23.9 28.8 22.3 91 1.1 CALM 0 0 0 0 1011.2 - 0.0
02/07:00pm 24.3 28.1 22.4 89 1.3 E 6 7 3 4 1010.9 - 0.0
02/06:30pm 25.5 30.0 23.0 86 1.7 E 4 7 2 4 1010.5 - 0.0
02/06:00pm 26.1 30.2 23.2 84 2.0 E 7 11 4 6 1010.4 1010.3 0.0
02/05:30pm 27.1 30.2 22.9 78 2.9 E 11 17 6 9 1010.3 - 0.0
02/05:00pm 27.5 30.2 22.9 76 3.1 E 13 19 7 10 1010.0 - 0.0
02/04:30pm 28.2 30.7 23.1 74 3.5 ENE 15 20 8 11 1009.8 - 0.0
02/04:00pm 28.5 31.0 23.2 73 3.6 ENE 15 22 8 12 1009.7 - 0.0
02/03:30pm 28.9 31.9 23.3 72 3.8 ENE 13 19 7 10 1009.7 - 0.0
02/03:00pm 29.0 31.6 22.7 69 4.3 ENE 13 20 7 11 1009.8 1009.7 0.0
02/02:30pm 28.9 31.3 22.9 70 4.1 E 15 22 8 12 1010.1 - 0.0
02/02:00pm 29.3 31.8 22.5 67 4.6 E 13 19 7 10 1010.3 - 0.0
02/01:30pm 29.4 31.9 22.4 66 4.8 SE 13 19 7 10 1010.8 - 0.0
02/01:00pm 29.3 31.6 22.0 64 4.9 E 13 20 7 11 1011.2 - 0.0
02/12:30pm 28.8 31.2 21.6 65 4.8 E 11 19 6 10 1011.7 - 0.0
02/12:00pm 28.8 30.8 21.6 65 4.8 ESE 13 20 7 11 1012.2 1012.1 0.0
02/11:30am 29.0 32.0 22.0 66 4.7 ESE 9 15 5 8 1012.7 - 0.0
02/11:00am 28.3 31.0 22.1 69 4.2 SSE 11 17 6 9 1013.2 - 0.0
02/10:30am 27.5 29.9 21.5 70 4.0 ESE 11 15 6 8 1013.7 - 0.0
02/10:00am 26.9 29.1 21.9 74 3.3 SSE 13 19 7 10 1014.0 - 0.0
02/09:30am 26.4 29.6 23.1 82 2.2 SE 11 17 6 9 1014.3 - 0.0
02/09:00am 25.2 28.9 22.3 84 1.9 SE 6 13 3 7 1014.2 1014.1 0.0
02/08:30am 23.2 28.3 22.7 97 0.3 CALM 0 0 0 0 1014.0 - 0.0
02/08:00am 21.5 25.9 21.3 99 0.1 CALM 0 0 0 0 1013.9 - 0.0
02/07:30am 19.8 23.3 19.6 99 0.1 CALM 0 0 0 0 1013.5 - 0.0
02/07:00am 18.9 22.0 18.7 99 0.1 CALM 0 0 0 0 1013.1 - 0.0
02/06:30am 18.7 21.7 18.4 98 0.2 CALM 0 0 0 0 1012.6 - 0.0
02/06:00am 18.8 21.8 18.5 98 0.2 CALM 0 0 0 0 1012.2 1012.1 0.0
02/05:30am 19.1 22.3 18.8 98 0.2 CALM 0 0 0 0 1011.9 - 0.0
02/05:13am 19.0 22.1 18.7 98 0.2 CALM 0 0 0 0 1011.9 - 0.0
02/05:00am 19.3 22.6 19.0 98 0.2 CALM 0 0 0 0 1011.8 - 0.0
02/04:52am 19.3 22.6 19.0 98 0.2 CALM 0 0 0 0 1011.8 - 0.0
02/04:30am 19.2 22.4 18.9 98 0.2 CALM 0 0 0 0 1011.8 - 0.0
02/04:00am 19.3 22.5 18.8 97 0.3 CALM 0 0 0 0 1011.6 - 0.0
02/03:30am 19.4 22.6 18.9 97 0.3 CALM 0 0 0 0 1011.4 - 0.0
02/03:00am 19.6 22.9 19.1 97 0.3 CALM 0 0 0 0 1011.7 1011.6 0.0
02/02:30am 19.8 23.2 19.3 97 0.3 CALM 0 0 0 0 1011.8 - 0.0
02/02:00am 19.9 23.3 19.4 97 0.3 CALM 0 0 0 0 1012.1 - 0.0
02/01:30am 20.2 23.8 19.7 97 0.3 CALM 0 0 0 0 1012.5 - 0.0
02/01:00am 20.4 24.1 19.9 97 0.3 CALM 0 0 0 0 1012.8 - 0.0
02/12:30am 20.5 24.2 20.0 97 0.3 CALM 0 0 0 0 1013.1 - 0.0
02/12:00am 20.4 24.1 19.9 97 0.3 CALM 0 0 0 0 1013.1 1013.0 0.0
 
Date/Time
EST
Temp
°C
App
Temp
°C
Dew
Point
Rel
Hum
%
Delta-T
°C
Wind Press
QNH
hPa
Press
MSL
hPa
Rain
since 9 am
mm
Dir
 
Spd
km/h
Gust
km/h
Spd
kts
Gust
kts
01/11:30pm 20.6 24.3 19.9 96 0.4 CALM 0 0 0 0 1013.0 - 0.0
01/11:00pm 20.8 24.6 20.1 96 0.4 CALM 0 0 0 0 1013.0 - 0.0
01/10:30pm 20.8 24.6 20.1 96 0.4 CALM 0 0 0 0 1013.1 - 0.0
01/10:00pm 21.4 25.5 20.7 96 0.5 CALM 0 0 0 0 1012.9 - 0.0
01/09:30pm 21.5 25.6 20.7 95 0.5 CALM 0 0 0 0 1013.0 - 0.0
01/09:00pm 21.9 26.1 20.9 94 0.7 CALM 0 0 0 0 1012.8 1012.7 0.0
01/08:30pm 22.0 26.1 20.8 93 0.8 CALM 0 0 0 0 1012.6 - 0.0
01/08:00pm 22.9 27.3 21.4 91 1.0 CALM 0 0 0 0 1012.1 - 0.0
01/07:30pm 23.6 28.2 21.7 89 1.3 CALM 0 0 0 0 1011.8 - 0.0
01/07:00pm 23.8 27.9 21.5 87 1.5 ESE 2 7 1 4 1011.5 - 0.0
01/06:30pm 25.4 28.6 21.7 80 2.5 SSE 7 11 4 6 1011.1 - 0.0
01/06:00pm 26.4 29.3 21.8 76 3.1 SSE 9 13 5 7 1011.0 1010.9 0.0
01/05:30pm 27.3 28.7 21.1 69 4.1 SSE 15 20 8 11 1011.0 - 0.0
01/05:00pm 28.0 29.8 21.8 69 4.2 SE 15 20 8 11 1010.9 - 0.0
01/04:30pm 28.0 29.8 21.8 69 4.2 SE 15 19 8 10 1010.7 - 0.0
01/04:00pm 28.1 29.8 21.6 68 4.3 ESE 15 19 8 10 1010.9 - 0.0
01/03:30pm 28.4 30.9 22.4 70 4.1 E 13 22 7 12 1011.0 - 0.0
01/03:00pm 28.5 30.4 22.0 68 4.4 E 15 22 8 12 1011.1 1011.0 0.0
01/02:30pm 28.4 29.7 21.7 67 4.5 E 17 26 9 14 1011.2 - 0.0
01/02:00pm 28.6 29.7 22.3 68 4.3 ESE 20 26 11 14 1011.4 - 0.0
01/01:30pm 28.7 30.0 21.7 66 4.7 E 17 26 9 14 1011.5 - 0.0
01/01:00pm 29.4 31.1 22.4 66 4.8 E 17 24 9 13 1011.7 - 0.0
01/12:30pm 28.7 29.9 21.5 65 4.8 E 17 24 9 13 1011.9 - 0.0
01/12:00pm 28.9 30.3 21.9 66 4.7 ESE 17 26 9 14 1012.4 1012.3 0.0
01/11:30am 28.6 30.9 22.1 68 4.4 ESE 13 24 7 13 1013.0 - 0.0
01/11:00am 28.2 30.8 22.0 69 4.2 ESE 11 20 6 11 1013.6 - 0.0
01/10:30am 27.9 29.7 21.2 67 4.5 SE 13 30 7 16 1014.1 - 0.0
01/10:00am 27.5 29.5 21.5 70 4.0 ESE 13 19 7 10 1014.1 - 0.0
01/09:30am 26.9 29.6 22.1 75 3.2 SE 11 17 6 9 1014.4 - 0.0
01/09:00am 25.7 29.3 22.4 82 2.2 SSE 7 9 4 5 1014.3 1014.2 0.0
01/08:30am 24.2 29.2 22.5 90 1.1 CALM 0 0 0 0 1014.2 - 0.0
01/08:00am 21.9 26.3 21.4 97 0.3 CALM 0 0 0 0 1013.8 - 0.0
01/07:30am 20.0 23.6 19.7 98 0.2 CALM 0 0 0 0 1013.6 - 0.0
01/07:00am 19.5 22.8 19.2 98 0.2 CALM 0 0 0 0 1013.2 - 0.0
01/06:30am 19.4 22.6 18.9 97 0.3 CALM 0 0 0 0 1012.7 - 0.0
01/06:00am 19.6 22.9 19.1 97 0.3 CALM 0 0 0 0 1012.5 1012.4 0.0
01/05:30am 19.6 22.9 19.1 97 0.3 CALM 0 0 0 0 1012.1 - 0.0
01/05:00am 19.7 23.0 19.2 97 0.3 CALM 0 0 0 0 1012.1 - 0.0
01/04:30am 20.0 23.5 19.5 97 0.3 CALM 0 0 0 0 1012.1 - 0.0
01/04:00am 20.2 23.8 19.7 97 0.3 CALM 0 0 0 0 1012.1 - 0.0
01/03:30am 20.4 24.1 19.9 97 0.3 CALM 0 0 0 0 1012.2 - 0.0
01/03:00am 20.5 24.2 20.0 97 0.3 CALM 0 0 0 0 1012.4 1012.3 0.0

Other Formats:

Comma delimited format used in spreadsheet applications
http://www.bom.gov.au/fwo/IDQ60801/IDQ60801.94186.axf

JavaScript Object Notation format (JSON) in row-major order
http://www.bom.gov.au/fwo/IDQ60801/IDQ60801.94186.json